METAR Reports From Nearby Airports

 

KLUD - Decatur, Texas, USA
Distance from Wildwood: ESE 5mi, 8km
Actualización: Dec 04, 2021 12:15am
Despejado
Despejado
 Viento del S
Viento: S 10 mph , 17 km/h, Racha: 16 mph , 26 km/h
Temperatura: 64°F , 18°C
Rocío: 63°F , 17°C
Humedad: 94%
Barómetro: 29.98 inHg , 1015.2 hPa
Clouds: Despejado
Visibility: 7 miles , 11 km
2021/12/04 06:15 KLUD 040615Z AUTO 18009G14KT 7SM CLR 18/17 A2998 RMK AO2 T01800165
KXBP - Bridgeport, Texas, USA
Distance from Wildwood: OSO 11mi, 18km
Actualización: Dec 04, 2021 12:15am
Nearby thunderstorm, Despejado
Nearby thunderstorm, Despejado
 Viento del S
Viento: S 12 mph , 19 km/h
Temperatura: 66°F , 19°C
Rocío: 63°F , 17°C
Humedad: 88%
Barómetro: 29.98 inHg , 1015.2 hPa
Resumen: Nearby Thunderstorm
Clouds: Despejado
Visibility: 10 miles , 16 km
2021/12/04 06:15 KXBP 040615Z AUTO 18010KT 10SM VCTS CLR 19/17 A2998 RMK AO2 LTG DSNT S AND SW T01910172
 
K0F2 - Bowie, Texas, USA
Distance from Wildwood: NNO 24mi, 39km
Actualización: Dec 04, 2021 12:35am
Mist, Parcialmente nuboso
Mist, Parcialmente nuboso
 Viento del SE
Viento: SE 3 mph , 6 km/h
Temperatura: 61°F , 16°C
Rocío: 61°F , 16°C
Humedad: 100%
Barómetro: 29.98 inHg , 1015.2 hPa
Resumen: Mist
Clouds: Partly Cloudy
Visibility: 4 miles , 6 km
Cloud details: Partly Cloudy 12000 ft
2021/12/04 06:35 K0F2 040635Z AUTO 14003KT 4SM BR SCT120 16/16 A2998 RMK AO2 T01600155
KDTO - Denton, Texas, USA
Distance from Wildwood: E 27mi, 44km
Actualización: Dec 03, 2021 11:53pm
Despejado
Despejado
 Viento del SSE
Viento: SSE 7 mph , 11 km/h
Temperatura: 64°F , 18°C
Rocío: 63°F , 17°C
Humedad: 94%
Barómetro: 29.99 inHg , 1015.6 hPa
Clouds: Despejado
Visibility: 10 miles , 16 km
2021/12/04 05:53 KDTO 040553Z AUTO 16006KT 10SM CLR 18/17 A2999 RMK AO2 SLP148 T01780167 10206 20172 402330144 51002
 
KAFW - Ft Worth/Allianc, Texas, USA
Distance from Wildwood: SE 29mi, 46km
Actualización: Dec 03, 2021 11:53pm
Mostly Cloudy
Mostly Cloudy
 Viento del S
Viento: S 8 mph , 13 km/h
Temperatura: 64°F , 18°C
Rocío: 63°F , 17°C
Humedad: 94%
Barómetro: 29.97 inHg , 1014.9 hPa
Clouds: Mostly Cloudy
Visibility: 10 miles , 16 km
Cloud details: Few Clouds 1500 ft
Mostly Cloudy 25000 ft
2021/12/04 05:53 KAFW 040553Z 17007KT 10SM FEW015 BKN250 18/17 A2997 RMK AO2 SLP142 T01780167 10206 20172 402280139 50002
KFTW - Fort Worth, Texas, USA
Distance from Wildwood: SSE 34mi, 55km
Actualización: Dec 03, 2021 11:53pm
Despejado
Despejado
 Viento del SSE
Viento: SSE 8 mph , 13 km/h
Temperatura: 64°F , 18°C
Rocío: 63°F , 17°C
Humedad: 94%
Barómetro: 29.98 inHg , 1015.2 hPa
Clouds: Despejado
Visibility: 10 miles , 16 km
2021/12/04 05:53 KFTW 040553Z 16007KT 10SM CLR 18/17 A2998 RMK AO2 SLP146 T01780167 10200 20178 402220128 50003
 
KNFW - Fort Worth Nas, Texas, USA
Distance from Wildwood: SSE 36mi, 58km
Actualización: Dec 03, 2021 11:52pm
Few Clouds
Few Clouds
 Viento del S
Viento: S 7 mph , 11 km/h
Barómetro: 29.99 inHg , 1015.6 hPa
Clouds: Few Clouds
Visibility: 10 miles , 16 km
Cloud details: Few Clouds 12000 ft
2021/12/04 05:52 KNFW 040552Z 18006KT 10SM FEW120 A2999 RMK AO2 SLP141 51005 CHINO S VISNO S $
KGLE - Gainesville, Texas, USA
Distance from Wildwood: NE 38mi, 61km
Actualización: Dec 04, 2021 12:35am
Niebla, Cubierto
Niebla, Cubierto
 Viento del calm
Viento: Calma
Temperatura: 57°F , 14°C
Rocío: 57°F , 14°C
Humedad: 100%
Barómetro: 30.00 inHg , 1015.9 hPa
Resumen: Niebla
Clouds: Cubierto
Visibility: 1/4 mile , 0.4 km
Cloud details: Cubierto 300 ft
2021/12/04 06:35 KGLE 040635Z AUTO 00000KT 1/4SM FG OVC003 14/14 A3000 RMK AO2 T01430142
 
KMWL - Mineral Wells, Texas, USA
Distance from Wildwood: SO 41mi, 65km
Actualización: Dec 04, 2021 12:31am
Light thunderstorm, Probáblemente lluvioso, Muy nuboso
Light thunderstorm, Probáblemente lluvioso, Muy nuboso
 Viento del ENE
Viento: ENE 6 mph , 9 km/h
Temperatura: 64°F , 18°C
Rocío: 61°F , 16°C
Humedad: 88%
Barómetro: 29.99 inHg , 1015.6 hPa
Resumen: Light thunderstorm, Probáblemente lluvioso
Clouds: Mostly Cloudy
Visibility: 10 miles , 16 km
Cloud details: Partly Cloudy 7500 ft
Mostly Cloudy 11000 ft
2021/12/04 06:31 KMWL 040631Z AUTO 06005KT 10SM -TSRA SCT075 BKN110 18/16 A2999 RMK AO2 LTG DSNT ALQDS RAB15 TSB25 P0000 T01780161
KDFW - Dallas/Ft Worth, Texas, USA
Distance from Wildwood: ESE 45mi, 73km
Actualización: Dec 03, 2021 11:53pm
Partly Cloudy
Partly Cloudy
 Viento del S
Viento: S 7 mph , 11 km/h
Temperatura: 63°F , 17°C
Rocío: 61°F , 16°C
Humedad: 94%
Barómetro: 29.98 inHg , 1015.2 hPa
Clouds: Partly Cloudy
Visibility: 9 miles , 14 km
Cloud details: Few Clouds 1000 ft
Partly Cloudy 25000 ft
2021/12/04 05:53 KDFW 040553Z 18006KT 9SM FEW010 SCT250 17/16 A2998 RMK AO2 SLP146 T01720161 10211 20161 402330139 51005